<?xml version="1.0" encoding="UTF-8" standalone="no" ?>
<gpx xmlns="http://www.topografix.com/GPX/1/1" xmlns:xsi="http://www.w3.org/2001/XMLSchema-instance" xsi:schemaLocation="http://www.topografix.com/GPX/1/1 http://www.topografix.com/GPX/1/1/gpx.xsd" version="1.1" creator="VisuGPX - https://www.visugpx.com">
  <metadata>
    <name>Rando des Terrils light, sans orchies</name>
  </metadata>
  <trk>
    <name><![CDATA[Rando des Terrils light, sans orchies_1]]></name>
    <trkseg>
      <trkpt lat="50.4608" lon="3.03628">
        <ele>30</ele>
      </trkpt>
      <trkpt lat="50.45961" lon="3.03465">
        <ele>31</ele>
      </trkpt>
      <trkpt lat="50.45842" lon="3.03371">
        <ele>31.1</ele>
      </trkpt>
      <trkpt lat="50.45711" lon="3.03252">
        <ele>31.8</ele>
      </trkpt>
      <trkpt lat="50.45795" lon="3.0302">
        <ele>30.9</ele>
      </trkpt>
      <trkpt lat="50.45812" lon="3.02859">
        <ele>31.5</ele>
      </trkpt>
      <trkpt lat="50.45768" lon="3.02663">
        <ele>29.8</ele>
      </trkpt>
      <trkpt lat="50.45731" lon="3.02601">
        <ele>30.3</ele>
      </trkpt>
      <trkpt lat="50.45736" lon="3.02502">
        <ele>30.2</ele>
      </trkpt>
      <trkpt lat="50.4568" lon="3.02502">
        <ele>30.8</ele>
      </trkpt>
      <trkpt lat="50.45642" lon="3.02409">
        <ele>31</ele>
      </trkpt>
      <trkpt lat="50.45513" lon="3.02206">
        <ele>31.3</ele>
      </trkpt>
      <trkpt lat="50.45493" lon="3.0217">
        <ele>32</ele>
        <time>2020-10-22T16:45:03Z</time>
      </trkpt>
      <trkpt lat="50.45438" lon="3.02141">
        <ele>31</ele>
        <time>2020-10-22T16:45:16Z</time>
      </trkpt>
      <trkpt lat="50.45421" lon="3.02129">
        <ele>30</ele>
        <time>2020-10-22T16:45:21Z</time>
      </trkpt>
      <trkpt lat="50.45406" lon="3.02109">
        <ele>30</ele>
        <time>2020-10-22T16:45:25Z</time>
      </trkpt>
      <trkpt lat="50.45387" lon="3.02076">
        <ele>29</ele>
        <time>2020-10-22T16:45:32Z</time>
      </trkpt>
      <trkpt lat="50.45328" lon="3.02006">
        <ele>29</ele>
        <time>2020-10-22T16:45:49Z</time>
      </trkpt>
      <trkpt lat="50.45302" lon="3.01991">
        <ele>29</ele>
        <time>2020-10-22T16:45:56Z</time>
      </trkpt>
      <trkpt lat="50.45278" lon="3.01997">
        <ele>28</ele>
        <time>2020-10-22T16:46:01Z</time>
      </trkpt>
      <trkpt lat="50.45245" lon="3.02041">
        <ele>28</ele>
        <time>2020-10-22T16:46:11Z</time>
      </trkpt>
      <trkpt lat="50.45208" lon="3.02069">
        <ele>28</ele>
        <time>2020-10-22T16:46:21Z</time>
      </trkpt>
      <trkpt lat="50.45162" lon="3.02097">
        <ele>28</ele>
        <time>2020-10-22T16:46:33Z</time>
      </trkpt>
      <trkpt lat="50.45106" lon="3.02118">
        <ele>27</ele>
        <time>2020-10-22T16:46:46Z</time>
      </trkpt>
      <trkpt lat="50.45056" lon="3.0212">
        <ele>26</ele>
        <time>2020-10-22T16:46:58Z</time>
      </trkpt>
      <trkpt lat="50.45009" lon="3.02116">
        <ele>26</ele>
        <time>2020-10-22T16:47:09Z</time>
      </trkpt>
      <trkpt lat="50.44987" lon="3.02107">
        <ele>26</ele>
        <time>2020-10-22T16:47:14Z</time>
      </trkpt>
      <trkpt lat="50.44957" lon="3.02066">
        <ele>27</ele>
        <time>2020-10-22T16:47:23Z</time>
      </trkpt>
      <trkpt lat="50.44897" lon="3.01972">
        <ele>26</ele>
        <time>2020-10-22T16:47:43Z</time>
      </trkpt>
      <trkpt lat="50.44869" lon="3.01922">
        <ele>26</ele>
        <time>2020-10-22T16:47:53Z</time>
      </trkpt>
      <trkpt lat="50.44811" lon="3.01843">
        <ele>27</ele>
        <time>2020-10-22T16:48:11Z</time>
      </trkpt>
      <trkpt lat="50.44785" lon="3.01813">
        <ele>27</ele>
        <time>2020-10-22T16:48:18Z</time>
      </trkpt>
      <trkpt lat="50.44764" lon="3.01796">
        <ele>26</ele>
        <time>2020-10-22T16:48:24Z</time>
      </trkpt>
      <trkpt lat="50.44693" lon="3.01763">
        <ele>27</ele>
        <time>2020-10-22T16:48:41Z</time>
      </trkpt>
      <trkpt lat="50.44638" lon="3.0174">
        <ele>26</ele>
        <time>2020-10-22T16:48:54Z</time>
      </trkpt>
      <trkpt lat="50.44599" lon="3.0173">
        <ele>26</ele>
        <time>2020-10-22T16:49:04Z</time>
      </trkpt>
      <trkpt lat="50.44575" lon="3.01705">
        <ele>25</ele>
        <time>2020-10-22T16:49:10Z</time>
      </trkpt>
      <trkpt lat="50.44558" lon="3.01696">
        <ele>25</ele>
        <time>2020-10-22T16:49:15Z</time>
      </trkpt>
      <trkpt lat="50.44536" lon="3.01651">
        <ele>25</ele>
        <time>2020-10-22T16:49:23Z</time>
      </trkpt>
      <trkpt lat="50.44495" lon="3.01551">
        <ele>26</ele>
        <time>2020-10-22T16:49:41Z</time>
      </trkpt>
      <trkpt lat="50.44317" lon="3.01141">
        <ele>28</ele>
        <time>2020-10-22T16:50:55Z</time>
      </trkpt>
      <trkpt lat="50.44304" lon="3.01145">
        <ele>28</ele>
        <time>2020-10-22T16:50:58Z</time>
      </trkpt>
      <trkpt lat="50.44291" lon="3.0118">
        <ele>28</ele>
        <time>2020-10-22T16:51:04Z</time>
      </trkpt>
      <trkpt lat="50.44283" lon="3.01158">
        <ele>27</ele>
        <time>2020-10-22T16:51:07Z</time>
      </trkpt>
      <trkpt lat="50.44276" lon="3.01101">
        <ele>27</ele>
        <time>2020-10-22T16:51:16Z</time>
      </trkpt>
      <trkpt lat="50.44106" lon="3.00721">
        <ele>26</ele>
        <time>2020-10-22T16:52:25Z</time>
      </trkpt>
      <trkpt lat="50.43848" lon="3.00129">
        <ele>28</ele>
        <time>2020-10-22T16:54:12Z</time>
      </trkpt>
      <trkpt lat="50.43756" lon="2.99909">
        <ele>26</ele>
        <time>2020-10-22T16:54:51Z</time>
      </trkpt>
      <trkpt lat="50.43677" lon="3.00076">
        <ele>24</ele>
        <time>2020-10-22T16:55:22Z</time>
      </trkpt>
      <trkpt lat="50.43649" lon="3.00147">
        <ele>25</ele>
        <time>2020-10-22T16:55:34Z</time>
      </trkpt>
      <trkpt lat="50.43628" lon="3.00438">
        <ele>25</ele>
        <time>2020-10-22T16:56:18Z</time>
      </trkpt>
      <trkpt lat="50.43626" lon="3.00593">
        <ele>25</ele>
        <time>2020-10-22T16:56:41Z</time>
      </trkpt>
      <trkpt lat="50.43619" lon="3.00752">
        <ele>23</ele>
        <time>2020-10-22T16:57:05Z</time>
      </trkpt>
      <trkpt lat="50.43615" lon="3.01098">
        <ele>23</ele>
        <time>2020-10-22T16:57:56Z</time>
      </trkpt>
      <trkpt lat="50.43599" lon="3.01241">
        <ele>22</ele>
        <time>2020-10-22T16:58:18Z</time>
      </trkpt>
      <trkpt lat="50.4358" lon="3.013">
        <ele>22</ele>
        <time>2020-10-22T16:58:28Z</time>
      </trkpt>
      <trkpt lat="50.43564" lon="3.01329">
        <ele>22</ele>
        <time>2020-10-22T16:58:33Z</time>
      </trkpt>
      <trkpt lat="50.43561" lon="3.01367">
        <ele>23</ele>
        <time>2020-10-22T16:58:39Z</time>
      </trkpt>
      <trkpt lat="50.43577" lon="3.0147">
        <ele>25</ele>
        <time>2020-10-22T16:58:55Z</time>
      </trkpt>
      <trkpt lat="50.43589" lon="3.01569">
        <ele>24</ele>
        <time>2020-10-22T16:59:10Z</time>
      </trkpt>
      <trkpt lat="50.43611" lon="3.01678">
        <ele>22</ele>
        <time>2020-10-22T16:59:27Z</time>
      </trkpt>
      <trkpt lat="50.43632" lon="3.01745">
        <ele>22</ele>
        <time>2020-10-22T16:59:38Z</time>
      </trkpt>
      <trkpt lat="50.43704" lon="3.01771">
        <ele>23</ele>
        <time>2020-10-22T16:59:55Z</time>
      </trkpt>
      <trkpt lat="50.43723" lon="3.01871">
        <ele>24</ele>
        <time>2020-10-22T17:00:11Z</time>
      </trkpt>
      <trkpt lat="50.43748" lon="3.01951">
        <ele>25</ele>
        <time>2020-10-22T17:00:24Z</time>
      </trkpt>
      <trkpt lat="50.4381" lon="3.01953">
        <ele>26</ele>
        <time>2020-10-22T17:00:38Z</time>
      </trkpt>
      <trkpt lat="50.43938" lon="3.02071">
        <ele>29</ele>
        <time>2020-10-22T17:01:13Z</time>
      </trkpt>
      <trkpt lat="50.43905" lon="3.02162">
        <ele>28</ele>
        <time>2020-10-22T17:01:29Z</time>
      </trkpt>
      <trkpt lat="50.4387" lon="3.02197">
        <ele>29</ele>
        <time>2020-10-22T17:01:38Z</time>
      </trkpt>
      <trkpt lat="50.43827" lon="3.02183">
        <ele>30</ele>
        <time>2020-10-22T17:01:49Z</time>
      </trkpt>
      <trkpt lat="50.43817" lon="3.02198">
        <ele>29</ele>
        <time>2020-10-22T17:01:52Z</time>
      </trkpt>
      <trkpt lat="50.43811" lon="3.02229">
        <ele>28</ele>
        <time>2020-10-22T17:01:57Z</time>
      </trkpt>
      <trkpt lat="50.43793" lon="3.02276">
        <ele>27</ele>
        <time>2020-10-22T17:02:05Z</time>
      </trkpt>
      <trkpt lat="50.43771" lon="3.02306">
        <ele>28</ele>
        <time>2020-10-22T17:02:12Z</time>
      </trkpt>
      <trkpt lat="50.4378" lon="3.0235">
        <ele>28</ele>
        <time>2020-10-22T17:02:18Z</time>
      </trkpt>
      <trkpt lat="50.43754" lon="3.02323">
        <ele>28</ele>
        <time>2020-10-22T17:02:26Z</time>
      </trkpt>
      <trkpt lat="50.43738" lon="3.02292">
        <ele>29</ele>
        <time>2020-10-22T17:02:32Z</time>
      </trkpt>
      <trkpt lat="50.437" lon="3.02235">
        <ele>30</ele>
        <time>2020-10-22T17:02:44Z</time>
      </trkpt>
      <trkpt lat="50.4367" lon="3.02198">
        <ele>30</ele>
        <time>2020-10-22T17:02:53Z</time>
      </trkpt>
      <trkpt lat="50.4365" lon="3.02186">
        <ele>31</ele>
        <time>2020-10-22T17:02:58Z</time>
      </trkpt>
      <trkpt lat="50.43604" lon="3.02174">
        <ele>35</ele>
        <time>2020-10-22T17:03:09Z</time>
      </trkpt>
      <trkpt lat="50.4358" lon="3.02132">
        <ele>36</ele>
        <time>2020-10-22T17:03:17Z</time>
      </trkpt>
      <trkpt lat="50.43518" lon="3.02118">
        <ele>41</ele>
        <time>2020-10-22T17:03:32Z</time>
      </trkpt>
      <trkpt lat="50.43504" lon="3.02129">
        <ele>42</ele>
        <time>2020-10-22T17:03:35Z</time>
      </trkpt>
      <trkpt lat="50.43492" lon="3.02148">
        <ele>44</ele>
        <time>2020-10-22T17:03:39Z</time>
      </trkpt>
      <trkpt lat="50.43477" lon="3.02186">
        <ele>45</ele>
        <time>2020-10-22T17:03:46Z</time>
      </trkpt>
      <trkpt lat="50.4345" lon="3.02242">
        <ele>45</ele>
        <time>2020-10-22T17:03:56Z</time>
      </trkpt>
      <trkpt lat="50.43441" lon="3.02255">
        <ele>45</ele>
        <time>2020-10-22T17:03:59Z</time>
      </trkpt>
      <trkpt lat="50.43416" lon="3.02256">
        <ele>46</ele>
        <time>2020-10-22T17:04:05Z</time>
      </trkpt>
      <trkpt lat="50.43394" lon="3.02244">
        <ele>47</ele>
        <time>2020-10-22T17:04:11Z</time>
      </trkpt>
      <trkpt lat="50.43381" lon="3.02247">
        <ele>48</ele>
        <time>2020-10-22T17:04:14Z</time>
      </trkpt>
      <trkpt lat="50.43379" lon="3.02262">
        <ele>48</ele>
        <time>2020-10-22T17:04:16Z</time>
      </trkpt>
      <trkpt lat="50.43421" lon="3.02271">
        <ele>46</ele>
        <time>2020-10-22T17:04:26Z</time>
      </trkpt>
      <trkpt lat="50.43465" lon="3.02267">
        <ele>45</ele>
        <time>2020-10-22T17:04:36Z</time>
      </trkpt>
      <trkpt lat="50.43506" lon="3.0227">
        <ele>44</ele>
        <time>2020-10-22T17:04:46Z</time>
      </trkpt>
      <trkpt lat="50.43546" lon="3.02302">
        <ele>41</ele>
        <time>2020-10-22T17:04:56Z</time>
      </trkpt>
      <trkpt lat="50.43601" lon="3.0232">
        <ele>37</ele>
        <time>2020-10-22T17:05:09Z</time>
      </trkpt>
      <trkpt lat="50.43649" lon="3.02352">
        <ele>33</ele>
        <time>2020-10-22T17:05:22Z</time>
      </trkpt>
      <trkpt lat="50.43663" lon="3.02371">
        <ele>32</ele>
        <time>2020-10-22T17:05:26Z</time>
      </trkpt>
      <trkpt lat="50.43631" lon="3.02371">
        <ele>33</ele>
        <time>2020-10-22T17:05:33Z</time>
      </trkpt>
      <trkpt lat="50.43615" lon="3.02374">
        <ele>34</ele>
        <time>2020-10-22T17:05:37Z</time>
      </trkpt>
      <trkpt lat="50.43595" lon="3.0237">
        <ele>35</ele>
        <time>2020-10-22T17:05:42Z</time>
      </trkpt>
      <trkpt lat="50.43583" lon="3.02376">
        <ele>35</ele>
        <time>2020-10-22T17:05:45Z</time>
      </trkpt>
      <trkpt lat="50.43578" lon="3.02394">
        <ele>35</ele>
        <time>2020-10-22T17:05:48Z</time>
      </trkpt>
      <trkpt lat="50.436" lon="3.02452">
        <ele>31</ele>
        <time>2020-10-22T17:05:58Z</time>
      </trkpt>
      <trkpt lat="50.4368" lon="3.02611">
        <ele>22</ele>
        <time>2020-10-22T17:06:28Z</time>
      </trkpt>
      <trkpt lat="50.43757" lon="3.02472">
        <ele>27</ele>
        <time>2020-10-22T17:06:55Z</time>
      </trkpt>
      <trkpt lat="50.43767" lon="3.02575">
        <ele>25</ele>
        <time>2020-10-22T17:07:11Z</time>
      </trkpt>
      <trkpt lat="50.43763" lon="3.02602">
        <ele>25</ele>
        <time>2020-10-22T17:07:15Z</time>
      </trkpt>
      <trkpt lat="50.43753" lon="3.02614">
        <ele>25</ele>
        <time>2020-10-22T17:07:18Z</time>
      </trkpt>
      <trkpt lat="50.43748" lon="3.02661">
        <ele>24</ele>
        <time>2020-10-22T17:07:25Z</time>
      </trkpt>
      <trkpt lat="50.43726" lon="3.02704">
        <ele>24</ele>
        <time>2020-10-22T17:07:33Z</time>
      </trkpt>
      <trkpt lat="50.43703" lon="3.02722">
        <ele>23</ele>
        <time>2020-10-22T17:07:39Z</time>
      </trkpt>
      <trkpt lat="50.43635" lon="3.02734">
        <ele>23</ele>
        <time>2020-10-22T17:07:55Z</time>
      </trkpt>
      <trkpt lat="50.43612" lon="3.02731">
        <ele>23</ele>
        <time>2020-10-22T17:08:00Z</time>
      </trkpt>
      <trkpt lat="50.436" lon="3.02723">
        <ele>22</ele>
        <time>2020-10-22T17:08:03Z</time>
      </trkpt>
      <trkpt lat="50.43567" lon="3.0267">
        <ele>21</ele>
        <time>2020-10-22T17:08:15Z</time>
      </trkpt>
      <trkpt lat="50.4345" lon="3.02506">
        <ele>33</ele>
        <time>2020-10-22T17:08:51Z</time>
      </trkpt>
      <trkpt lat="50.43423" lon="3.02473">
        <ele>35</ele>
        <time>2020-10-22T17:08:59Z</time>
      </trkpt>
      <trkpt lat="50.43396" lon="3.02431">
        <ele>38</ele>
        <time>2020-10-22T17:09:08Z</time>
      </trkpt>
      <trkpt lat="50.43387" lon="3.02409">
        <ele>39</ele>
        <time>2020-10-22T17:09:12Z</time>
      </trkpt>
      <trkpt lat="50.43377" lon="3.02371">
        <ele>41</ele>
        <time>2020-10-22T17:09:18Z</time>
      </trkpt>
      <trkpt lat="50.43386" lon="3.02355">
        <ele>43</ele>
        <time>2020-10-22T17:09:21Z</time>
      </trkpt>
      <trkpt lat="50.43379" lon="3.02338">
        <ele>44</ele>
        <time>2020-10-22T17:09:24Z</time>
      </trkpt>
      <trkpt lat="50.43374" lon="3.02285">
        <ele>47</ele>
        <time>2020-10-22T17:09:32Z</time>
      </trkpt>
      <trkpt lat="50.43357" lon="3.02258">
        <ele>49</ele>
        <time>2020-10-22T17:09:38Z</time>
      </trkpt>
      <trkpt lat="50.43259" lon="3.02197">
        <ele>46</ele>
        <time>2020-10-22T17:10:02Z</time>
      </trkpt>
      <trkpt lat="50.43203" lon="3.02183">
        <ele>45</ele>
        <time>2020-10-22T17:10:16Z</time>
      </trkpt>
      <trkpt lat="50.43157" lon="3.02183">
        <ele>43</ele>
        <time>2020-10-22T17:10:26Z</time>
      </trkpt>
      <trkpt lat="50.43165" lon="3.02209">
        <ele>41</ele>
        <time>2020-10-22T17:10:31Z</time>
      </trkpt>
      <trkpt lat="50.43145" lon="3.02223">
        <ele>40</ele>
        <time>2020-10-22T17:10:36Z</time>
      </trkpt>
      <trkpt lat="50.43156" lon="3.02244">
        <ele>38</ele>
        <time>2020-10-22T17:10:40Z</time>
      </trkpt>
      <trkpt lat="50.43132" lon="3.02248">
        <ele>37</ele>
        <time>2020-10-22T17:10:46Z</time>
      </trkpt>
      <trkpt lat="50.43143" lon="3.0227">
        <ele>35</ele>
        <time>2020-10-22T17:10:50Z</time>
      </trkpt>
      <trkpt lat="50.43113" lon="3.02277">
        <ele>34</ele>
        <time>2020-10-22T17:10:57Z</time>
      </trkpt>
      <trkpt lat="50.4308" lon="3.02311">
        <ele>30</ele>
        <time>2020-10-22T17:11:06Z</time>
      </trkpt>
      <trkpt lat="50.43047" lon="3.02311">
        <ele>29</ele>
        <time>2020-10-22T17:11:14Z</time>
      </trkpt>
      <trkpt lat="50.43011" lon="3.02336">
        <ele>27</ele>
        <time>2020-10-22T17:11:23Z</time>
      </trkpt>
      <trkpt lat="50.42996" lon="3.02333">
        <ele>27</ele>
        <time>2020-10-22T17:11:26Z</time>
      </trkpt>
      <trkpt lat="50.42989" lon="3.0232">
        <ele>27</ele>
        <time>2020-10-22T17:11:29Z</time>
      </trkpt>
      <trkpt lat="50.42969" lon="3.02253">
        <ele>26</ele>
        <time>2020-10-22T17:11:40Z</time>
      </trkpt>
      <trkpt lat="50.42956" lon="3.02241">
        <ele>25</ele>
        <time>2020-10-22T17:11:43Z</time>
      </trkpt>
      <trkpt lat="50.42941" lon="3.0225">
        <ele>24</ele>
        <time>2020-10-22T17:11:47Z</time>
      </trkpt>
      <trkpt lat="50.4291" lon="3.0228">
        <ele>23</ele>
        <time>2020-10-22T17:11:56Z</time>
      </trkpt>
      <trkpt lat="50.42902" lon="3.0233">
        <ele>23</ele>
        <time>2020-10-22T17:12:03Z</time>
      </trkpt>
      <trkpt lat="50.42881" lon="3.02408">
        <ele>24</ele>
        <time>2020-10-22T17:12:16Z</time>
      </trkpt>
      <trkpt lat="50.42868" lon="3.02418">
        <ele>24</ele>
        <time>2020-10-22T17:12:19Z</time>
      </trkpt>
      <trkpt lat="50.42756" lon="3.02723">
        <ele>21</ele>
        <time>2020-10-22T17:13:12Z</time>
      </trkpt>
      <trkpt lat="50.42638" lon="3.03003">
        <ele>24</ele>
        <time>2020-10-22T17:14:02Z</time>
      </trkpt>
      <trkpt lat="50.42587" lon="3.03135">
        <ele>22</ele>
        <time>2020-10-22T17:14:25Z</time>
      </trkpt>
      <trkpt lat="50.42528" lon="3.03271">
        <ele>24</ele>
        <time>2020-10-22T17:14:49Z</time>
      </trkpt>
      <trkpt lat="50.42485" lon="3.03382">
        <ele>25</ele>
        <time>2020-10-22T17:15:08Z</time>
      </trkpt>
      <trkpt lat="50.42424" lon="3.03575">
        <ele>26</ele>
        <time>2020-10-22T17:15:41Z</time>
      </trkpt>
      <trkpt lat="50.4238" lon="3.03792">
        <ele>24</ele>
        <time>2020-10-22T17:16:14Z</time>
      </trkpt>
      <trkpt lat="50.42355" lon="3.03954">
        <ele>22</ele>
        <time>2020-10-22T17:16:39Z</time>
      </trkpt>
      <trkpt lat="50.42347" lon="3.041">
        <ele>22</ele>
        <time>2020-10-22T17:17:01Z</time>
      </trkpt>
      <trkpt lat="50.42318" lon="3.04274">
        <ele>23</ele>
        <time>2020-10-22T17:17:28Z</time>
      </trkpt>
      <trkpt lat="50.423" lon="3.04367">
        <ele>25</ele>
        <time>2020-10-22T17:17:42Z</time>
      </trkpt>
      <trkpt lat="50.42283" lon="3.04438">
        <ele>25</ele>
        <time>2020-10-22T17:17:54Z</time>
      </trkpt>
      <trkpt lat="50.42509" lon="3.04782">
        <ele>23</ele>
        <time>2020-10-22T17:19:07Z</time>
      </trkpt>
      <trkpt lat="50.42592" lon="3.04914">
        <ele>23</ele>
        <time>2020-10-22T17:19:35Z</time>
      </trkpt>
      <trkpt lat="50.42678" lon="3.05087">
        <ele>22</ele>
        <time>2020-10-22T17:20:07Z</time>
      </trkpt>
      <trkpt lat="50.42683" lon="3.05257">
        <ele>24</ele>
        <time>2020-10-22T17:20:33Z</time>
      </trkpt>
      <trkpt lat="50.42663" lon="3.05418">
        <ele>23</ele>
        <time>2020-10-22T17:20:57Z</time>
      </trkpt>
      <trkpt lat="50.42707" lon="3.05461">
        <ele>23</ele>
        <time>2020-10-22T17:21:09Z</time>
      </trkpt>
      <trkpt lat="50.42777" lon="3.05505">
        <ele>23</ele>
        <time>2020-10-22T17:21:27Z</time>
      </trkpt>
      <trkpt lat="50.42845" lon="3.05543">
        <ele>23</ele>
        <time>2020-10-22T17:21:44Z</time>
      </trkpt>
      <trkpt lat="50.42914" lon="3.05594">
        <ele>23</ele>
        <time>2020-10-22T17:22:01Z</time>
      </trkpt>
      <trkpt lat="50.42965" lon="3.05668">
        <ele>24</ele>
        <time>2020-10-22T17:22:18Z</time>
      </trkpt>
      <trkpt lat="50.42816" lon="3.05895">
        <ele>23</ele>
        <time>2020-10-22T17:23:06Z</time>
      </trkpt>
      <trkpt lat="50.42817" lon="3.05952">
        <ele>23</ele>
        <time>2020-10-22T17:23:15Z</time>
      </trkpt>
      <trkpt lat="50.42775" lon="3.06005">
        <ele>23</ele>
        <time>2020-10-22T17:23:27Z</time>
      </trkpt>
      <trkpt lat="50.4275" lon="3.06102">
        <ele>23</ele>
        <time>2020-10-22T17:23:43Z</time>
      </trkpt>
      <trkpt lat="50.4271" lon="3.06166">
        <ele>21</ele>
        <time>2020-10-22T17:23:56Z</time>
      </trkpt>
      <trkpt lat="50.42705" lon="3.06213">
        <ele>21</ele>
        <time>2020-10-22T17:24:03Z</time>
      </trkpt>
      <trkpt lat="50.42689" lon="3.0626">
        <ele>21</ele>
        <time>2020-10-22T17:24:11Z</time>
      </trkpt>
      <trkpt lat="50.42672" lon="3.06277">
        <ele>21</ele>
        <time>2020-10-22T17:24:16Z</time>
      </trkpt>
      <trkpt lat="50.42674" lon="3.06313">
        <ele>21</ele>
        <time>2020-10-22T17:24:21Z</time>
      </trkpt>
      <trkpt lat="50.42733" lon="3.06376">
        <ele>21</ele>
        <time>2020-10-22T17:24:38Z</time>
      </trkpt>
      <trkpt lat="50.42765" lon="3.06472">
        <ele>19</ele>
        <time>2020-10-22T17:24:54Z</time>
      </trkpt>
      <trkpt lat="50.42814" lon="3.0655">
        <ele>19</ele>
        <time>2020-10-22T17:25:10Z</time>
      </trkpt>
      <trkpt lat="50.42852" lon="3.06638">
        <ele>20</ele>
        <time>2020-10-22T17:25:26Z</time>
      </trkpt>
      <trkpt lat="50.42851" lon="3.06691">
        <ele>21</ele>
        <time>2020-10-22T17:25:34Z</time>
      </trkpt>
      <trkpt lat="50.42825" lon="3.06729">
        <ele>22</ele>
        <time>2020-10-22T17:25:42Z</time>
      </trkpt>
      <trkpt lat="50.42818" lon="3.0675">
        <ele>23</ele>
        <time>2020-10-22T17:25:46Z</time>
      </trkpt>
      <trkpt lat="50.42799" lon="3.06782">
        <ele>23</ele>
        <time>2020-10-22T17:25:52Z</time>
      </trkpt>
      <trkpt lat="50.4279" lon="3.06809">
        <ele>23</ele>
        <time>2020-10-22T17:25:57Z</time>
      </trkpt>
      <trkpt lat="50.42786" lon="3.06832">
        <ele>23</ele>
        <time>2020-10-22T17:26:00Z</time>
      </trkpt>
      <trkpt lat="50.42786" lon="3.06858">
        <ele>23</ele>
        <time>2020-10-22T17:26:04Z</time>
      </trkpt>
      <trkpt lat="50.42801" lon="3.06876">
        <ele>23</ele>
        <time>2020-10-22T17:26:09Z</time>
      </trkpt>
      <trkpt lat="50.42835" lon="3.06887">
        <ele>24</ele>
        <time>2020-10-22T17:26:17Z</time>
      </trkpt>
      <trkpt lat="50.42872" lon="3.06834">
        <ele>25</ele>
        <time>2020-10-22T17:26:28Z</time>
      </trkpt>
      <trkpt lat="50.42906" lon="3.06817">
        <ele>24</ele>
        <time>2020-10-22T17:26:37Z</time>
      </trkpt>
      <trkpt lat="50.42943" lon="3.06784">
        <ele>23</ele>
        <time>2020-10-22T17:26:47Z</time>
      </trkpt>
      <trkpt lat="50.42977" lon="3.06746">
        <ele>22</ele>
        <time>2020-10-22T17:26:56Z</time>
      </trkpt>
      <trkpt lat="50.4296" lon="3.06712">
        <ele>21</ele>
        <time>2020-10-22T17:27:03Z</time>
      </trkpt>
      <trkpt lat="50.42953" lon="3.06688">
        <ele>21</ele>
        <time>2020-10-22T17:27:07Z</time>
      </trkpt>
      <trkpt lat="50.42985" lon="3.06649">
        <ele>21</ele>
        <time>2020-10-22T17:27:16Z</time>
      </trkpt>
      <trkpt lat="50.43009" lon="3.06661">
        <ele>21</ele>
        <time>2020-10-22T17:27:22Z</time>
      </trkpt>
      <trkpt lat="50.43049" lon="3.06646">
        <ele>23</ele>
        <time>2020-10-22T17:27:32Z</time>
      </trkpt>
      <trkpt lat="50.4308" lon="3.0669">
        <ele>24</ele>
        <time>2020-10-22T17:27:42Z</time>
      </trkpt>
      <trkpt lat="50.43107" lon="3.06811">
        <ele>22</ele>
        <time>2020-10-22T17:28:01Z</time>
      </trkpt>
      <trkpt lat="50.43159" lon="3.06884">
        <ele>21</ele>
        <time>2020-10-22T17:28:17Z</time>
      </trkpt>
      <trkpt lat="50.43196" lon="3.0686">
        <ele>21</ele>
        <time>2020-10-22T17:28:26Z</time>
      </trkpt>
      <trkpt lat="50.43255" lon="3.06765">
        <ele>23</ele>
        <time>2020-10-22T17:28:46Z</time>
      </trkpt>
      <trkpt lat="50.43269" lon="3.06726">
        <ele>23</ele>
        <time>2020-10-22T17:28:53Z</time>
      </trkpt>
      <trkpt lat="50.43295" lon="3.06706">
        <ele>23</ele>
        <time>2020-10-22T17:28:59Z</time>
      </trkpt>
      <trkpt lat="50.43298" lon="3.06674">
        <ele>23</ele>
        <time>2020-10-22T17:29:04Z</time>
      </trkpt>
      <trkpt lat="50.43278" lon="3.06641">
        <ele>23</ele>
        <time>2020-10-22T17:29:11Z</time>
      </trkpt>
      <trkpt lat="50.43307" lon="3.0663">
        <ele>23</ele>
        <time>2020-10-22T17:29:18Z</time>
      </trkpt>
      <trkpt lat="50.43326" lon="3.06679">
        <ele>24</ele>
        <time>2020-10-22T17:29:26Z</time>
      </trkpt>
      <trkpt lat="50.43355" lon="3.0667">
        <ele>24</ele>
        <time>2020-10-22T17:29:33Z</time>
      </trkpt>
      <trkpt lat="50.4347" lon="3.06788">
        <ele>23</ele>
        <time>2020-10-22T17:30:05Z</time>
      </trkpt>
      <trkpt lat="50.43495" lon="3.06835">
        <ele>22</ele>
        <time>2020-10-22T17:30:15Z</time>
      </trkpt>
      <trkpt lat="50.43485" lon="3.06897">
        <ele>23</ele>
        <time>2020-10-22T17:30:24Z</time>
      </trkpt>
      <trkpt lat="50.43462" lon="3.06955">
        <ele>24</ele>
        <time>2020-10-22T17:30:34Z</time>
      </trkpt>
      <trkpt lat="50.43481" lon="3.07014">
        <ele>24</ele>
        <time>2020-10-22T17:30:44Z</time>
      </trkpt>
      <trkpt lat="50.43578" lon="3.07114">
        <ele>24</ele>
        <time>2020-10-22T17:31:11Z</time>
      </trkpt>
      <trkpt lat="50.43732" lon="3.07287">
        <ele>27</ele>
        <time>2020-10-22T17:31:55Z</time>
      </trkpt>
      <trkpt lat="50.43723" lon="3.07328">
        <ele>26</ele>
        <time>2020-10-22T17:32:02Z</time>
      </trkpt>
      <trkpt lat="50.43775" lon="3.07369">
        <ele>27</ele>
        <time>2020-10-22T17:32:15Z</time>
      </trkpt>
      <trkpt lat="50.43837" lon="3.07392">
        <ele>28</ele>
        <time>2020-10-22T17:32:30Z</time>
      </trkpt>
      <trkpt lat="50.43901" lon="3.07471">
        <ele>31</ele>
        <time>2020-10-22T17:32:49Z</time>
      </trkpt>
      <trkpt lat="50.43937" lon="3.07501">
        <ele>32</ele>
        <time>2020-10-22T17:32:59Z</time>
      </trkpt>
      <trkpt lat="50.4405" lon="3.07568">
        <ele>32</ele>
        <time>2020-10-22T17:33:27Z</time>
      </trkpt>
      <trkpt lat="50.44086" lon="3.07636">
        <ele>34</ele>
        <time>2020-10-22T17:33:40Z</time>
      </trkpt>
      <trkpt lat="50.44188" lon="3.07703">
        <ele>38</ele>
        <time>2020-10-22T17:34:06Z</time>
      </trkpt>
      <trkpt lat="50.44133" lon="3.07896">
        <ele>39</ele>
        <time>2020-10-22T17:34:37Z</time>
      </trkpt>
      <trkpt lat="50.44148" lon="3.07925">
        <ele>39</ele>
        <time>2020-10-22T17:34:43Z</time>
      </trkpt>
      <trkpt lat="50.44259" lon="3.08001">
        <ele>42</ele>
        <time>2020-10-22T17:35:11Z</time>
      </trkpt>
      <trkpt lat="50.44328" lon="3.0801">
        <ele>43</ele>
        <time>2020-10-22T17:35:27Z</time>
      </trkpt>
      <trkpt lat="50.44378" lon="3.08143">
        <ele>44</ele>
        <time>2020-10-22T17:35:50Z</time>
      </trkpt>
      <trkpt lat="50.44494" lon="3.08261">
        <ele>47</ele>
        <time>2020-10-22T17:36:23Z</time>
      </trkpt>
      <trkpt lat="50.4452" lon="3.08192">
        <ele>48</ele>
        <time>2020-10-22T17:36:35Z</time>
      </trkpt>
      <trkpt lat="50.44619" lon="3.07976">
        <ele>53</ele>
        <time>2020-10-22T17:37:14Z</time>
      </trkpt>
      <trkpt lat="50.44659" lon="3.07919">
        <ele>55</ele>
        <time>2020-10-22T17:37:27Z</time>
      </trkpt>
      <trkpt lat="50.44779" lon="3.07784">
        <ele>59</ele>
        <time>2020-10-22T17:38:01Z</time>
      </trkpt>
      <trkpt lat="50.4482" lon="3.07732">
        <ele>60</ele>
        <time>2020-10-22T17:38:14Z</time>
      </trkpt>
      <trkpt lat="50.44869" lon="3.07621">
        <ele>63</ele>
        <time>2020-10-22T17:38:34Z</time>
      </trkpt>
      <trkpt lat="50.44878" lon="3.07583">
        <ele>63</ele>
        <time>2020-10-22T17:38:40Z</time>
      </trkpt>
      <trkpt lat="50.45026" lon="3.07714">
        <ele>67</ele>
        <time>2020-10-22T17:39:19Z</time>
      </trkpt>
      <trkpt lat="50.45026" lon="3.07872">
        <ele>66</ele>
        <time>2020-10-22T17:39:43Z</time>
      </trkpt>
      <trkpt lat="50.45054" lon="3.07909">
        <ele>66</ele>
        <time>2020-10-22T17:39:51Z</time>
      </trkpt>
      <trkpt lat="50.45118" lon="3.07957">
        <ele>68</ele>
        <time>2020-10-22T17:40:08Z</time>
      </trkpt>
      <trkpt lat="50.45155" lon="3.08031">
        <ele>68</ele>
        <time>2020-10-22T17:40:22Z</time>
      </trkpt>
      <trkpt lat="50.45183" lon="3.08113">
        <ele>68</ele>
        <time>2020-10-22T17:40:36Z</time>
      </trkpt>
      <trkpt lat="50.45233" lon="3.08149">
        <ele>69</ele>
        <time>2020-10-22T17:40:49Z</time>
      </trkpt>
      <trkpt lat="50.4523" lon="3.08167">
        <ele>68</ele>
        <time>2020-10-22T17:40:51Z</time>
      </trkpt>
      <trkpt lat="50.45271" lon="3.08192">
        <ele>69</ele>
        <time>2020-10-22T17:41:02Z</time>
      </trkpt>
      <trkpt lat="50.45406" lon="3.08245">
        <ele>73</ele>
        <time>2020-10-22T17:41:34Z</time>
      </trkpt>
      <trkpt lat="50.45477" lon="3.08265">
        <ele>72</ele>
        <time>2020-10-22T17:41:51Z</time>
      </trkpt>
      <trkpt lat="50.45553" lon="3.08277">
        <ele>71</ele>
        <time>2020-10-22T17:42:09Z</time>
      </trkpt>
      <trkpt lat="50.45594" lon="3.08272">
        <ele>71</ele>
        <time>2020-10-22T17:42:18Z</time>
      </trkpt>
      <trkpt lat="50.45701" lon="3.08217">
        <ele>71</ele>
        <time>2020-10-22T17:42:45Z</time>
      </trkpt>
      <trkpt lat="50.45769" lon="3.08189">
        <ele>69</ele>
        <time>2020-10-22T17:43:01Z</time>
      </trkpt>
      <trkpt lat="50.4587" lon="3.08142">
        <ele>68</ele>
        <time>2020-10-22T17:43:26Z</time>
      </trkpt>
      <trkpt lat="50.45932" lon="3.08143">
        <ele>66</ele>
        <time>2020-10-22T17:43:40Z</time>
      </trkpt>
      <trkpt lat="50.46011" lon="3.08139">
        <ele>64</ele>
        <time>2020-10-22T17:43:59Z</time>
      </trkpt>
      <trkpt lat="50.46093" lon="3.08331">
        <ele>60</ele>
        <time>2020-10-22T17:44:33Z</time>
      </trkpt>
      <trkpt lat="50.46199" lon="3.08501">
        <ele>57</ele>
        <time>2020-10-22T17:45:08Z</time>
      </trkpt>
      <trkpt lat="50.46244" lon="3.08565">
        <ele>57</ele>
        <time>2020-10-22T17:45:23Z</time>
      </trkpt>
      <trkpt lat="50.46324" lon="3.08648">
        <ele>57</ele>
        <time>2020-10-22T17:45:45Z</time>
      </trkpt>
      <trkpt lat="50.46413" lon="3.08732">
        <ele>57</ele>
        <time>2020-10-22T17:46:09Z</time>
      </trkpt>
      <trkpt lat="50.46484" lon="3.08808">
        <ele>54</ele>
        <time>2020-10-22T17:46:29Z</time>
      </trkpt>
      <trkpt lat="50.46558" lon="3.08906">
        <ele>52</ele>
        <time>2020-10-22T17:46:52Z</time>
      </trkpt>
      <trkpt lat="50.46639" lon="3.09022">
        <ele>50</ele>
        <time>2020-10-22T17:47:18Z</time>
      </trkpt>
      <trkpt lat="50.46679" lon="3.09117">
        <ele>50</ele>
        <time>2020-10-22T17:47:35Z</time>
      </trkpt>
      <trkpt lat="50.46755" lon="3.09196">
        <ele>48</ele>
        <time>2020-10-22T17:47:56Z</time>
      </trkpt>
      <trkpt lat="50.46819" lon="3.09196">
        <ele>47</ele>
        <time>2020-10-22T17:48:11Z</time>
      </trkpt>
      <trkpt lat="50.46893" lon="3.09173">
        <ele>46</ele>
        <time>2020-10-22T17:48:28Z</time>
      </trkpt>
      <trkpt lat="50.4697" lon="3.09169">
        <ele>46</ele>
        <time>2020-10-22T17:48:46Z</time>
      </trkpt>
      <trkpt lat="50.46987" lon="3.09234">
        <ele>45</ele>
        <time>2020-10-22T17:48:57Z</time>
      </trkpt>
      <trkpt lat="50.46992" lon="3.09292">
        <ele>45</ele>
        <time>2020-10-22T17:49:05Z</time>
      </trkpt>
      <trkpt lat="50.46975" lon="3.09365">
        <ele>44</ele>
        <time>2020-10-22T17:49:17Z</time>
      </trkpt>
      <trkpt lat="50.46966" lon="3.09421">
        <ele>44</ele>
        <time>2020-10-22T17:49:26Z</time>
      </trkpt>
      <trkpt lat="50.46965" lon="3.09509">
        <ele>45</ele>
        <time>2020-10-22T17:49:39Z</time>
      </trkpt>
      <trkpt lat="50.46937" lon="3.09706">
        <ele>46</ele>
        <time>2020-10-22T17:50:09Z</time>
      </trkpt>
      <trkpt lat="50.47003" lon="3.09726">
        <ele>47</ele>
        <time>2020-10-22T17:50:24Z</time>
      </trkpt>
      <trkpt lat="50.47057" lon="3.09765">
        <ele>48</ele>
        <time>2020-10-22T17:50:38Z</time>
      </trkpt>
      <trkpt lat="50.47168" lon="3.09865">
        <ele>51</ele>
        <time>2020-10-22T17:51:08Z</time>
      </trkpt>
      <trkpt lat="50.47298" lon="3.09961">
        <ele>56</ele>
        <time>2020-10-22T17:51:42Z</time>
      </trkpt>
      <trkpt lat="50.47467" lon="3.09973">
        <ele>64</ele>
        <time>2020-10-22T17:52:21Z</time>
      </trkpt>
      <trkpt lat="50.47566" lon="3.09988">
        <ele>71</ele>
        <time>2020-10-22T17:52:44Z</time>
      </trkpt>
      <trkpt lat="50.47743" lon="3.10028">
        <ele>81</ele>
        <time>2020-10-22T17:53:26Z</time>
      </trkpt>
      <trkpt lat="50.47818" lon="3.10122">
        <ele>90</ele>
        <time>2020-10-22T17:53:49Z</time>
      </trkpt>
      <trkpt lat="50.47833" lon="3.10157">
        <ele>93</ele>
        <time>2020-10-22T17:53:55Z</time>
      </trkpt>
      <trkpt lat="50.47807" lon="3.09952">
        <ele>86</ele>
        <time>2020-10-22T17:54:26Z</time>
      </trkpt>
      <trkpt lat="50.47803" lon="3.09887">
        <ele>83</ele>
        <time>2020-10-22T17:54:36Z</time>
      </trkpt>
      <trkpt lat="50.47803" lon="3.09808">
        <ele>79</ele>
        <time>2020-10-22T17:54:47Z</time>
      </trkpt>
      <trkpt lat="50.478" lon="3.09741">
        <ele>74</ele>
        <time>2020-10-22T17:54:57Z</time>
      </trkpt>
      <trkpt lat="50.47798" lon="3.09718">
        <ele>73</ele>
        <time>2020-10-22T17:55:01Z</time>
      </trkpt>
      <trkpt lat="50.47789" lon="3.09709">
        <ele>72</ele>
        <time>2020-10-22T17:55:03Z</time>
      </trkpt>
      <trkpt lat="50.47795" lon="3.0968">
        <ele>71</ele>
        <time>2020-10-22T17:55:08Z</time>
      </trkpt>
      <trkpt lat="50.47819" lon="3.09677">
        <ele>72</ele>
        <time>2020-10-22T17:55:13Z</time>
      </trkpt>
      <trkpt lat="50.47868" lon="3.09653">
        <ele>74</ele>
        <time>2020-10-22T17:55:25Z</time>
      </trkpt>
      <trkpt lat="50.47933" lon="3.09633">
        <ele>78</ele>
        <time>2020-10-22T17:55:41Z</time>
      </trkpt>
      <trkpt lat="50.47994" lon="3.09635">
        <ele>85</ele>
        <time>2020-10-22T17:55:55Z</time>
      </trkpt>
      <trkpt lat="50.4793" lon="3.09327">
        <ele>74</ele>
        <time>2020-10-22T17:56:43Z</time>
      </trkpt>
      <trkpt lat="50.47912" lon="3.09226">
        <ele>71</ele>
        <time>2020-10-22T17:56:59Z</time>
      </trkpt>
      <trkpt lat="50.47883" lon="3.09132">
        <ele>69</ele>
        <time>2020-10-22T17:57:14Z</time>
      </trkpt>
      <trkpt lat="50.47844" lon="3.09058">
        <ele>66</ele>
        <time>2020-10-22T17:57:29Z</time>
      </trkpt>
      <trkpt lat="50.47825" lon="3.09037">
        <ele>64</ele>
        <time>2020-10-22T17:57:34Z</time>
      </trkpt>
      <trkpt lat="50.47809" lon="3.09008">
        <ele>63</ele>
        <time>2020-10-22T17:57:40Z</time>
      </trkpt>
      <trkpt lat="50.47798" lon="3.08915">
        <ele>61</ele>
        <time>2020-10-22T17:57:54Z</time>
      </trkpt>
      <trkpt lat="50.47657" lon="3.08773">
        <ele>54</ele>
        <time>2020-10-22T17:58:33Z</time>
      </trkpt>
      <trkpt lat="50.47716" lon="3.08642">
        <ele>54</ele>
        <time>2020-10-22T17:58:57Z</time>
      </trkpt>
      <trkpt lat="50.47773" lon="3.08541">
        <ele>54</ele>
        <time>2020-10-22T17:59:17Z</time>
      </trkpt>
      <trkpt lat="50.47832" lon="3.08459">
        <ele>53</ele>
        <time>2020-10-22T17:59:35Z</time>
      </trkpt>
      <trkpt lat="50.47982" lon="3.08346">
        <ele>55</ele>
        <time>2020-10-22T18:00:14Z</time>
      </trkpt>
      <trkpt lat="50.48049" lon="3.08242">
        <ele>52</ele>
        <time>2020-10-22T18:00:36Z</time>
      </trkpt>
      <trkpt lat="50.4808" lon="3.08148">
        <ele>48</ele>
        <time>2020-10-22T18:00:52Z</time>
      </trkpt>
      <trkpt lat="50.4808" lon="3.07958">
        <ele>48</ele>
        <time>2020-10-22T18:01:20Z</time>
      </trkpt>
      <trkpt lat="50.48051" lon="3.07875">
        <ele>47</ele>
        <time>2020-10-22T18:01:34Z</time>
      </trkpt>
      <trkpt lat="50.48014" lon="3.07718">
        <ele>47</ele>
        <time>2020-10-22T18:01:59Z</time>
      </trkpt>
      <trkpt lat="50.47999" lon="3.07641">
        <ele>48</ele>
        <time>2020-10-22T18:02:11Z</time>
      </trkpt>
      <trkpt lat="50.47969" lon="3.07541">
        <ele>49</ele>
        <time>2020-10-22T18:02:27Z</time>
      </trkpt>
      <trkpt lat="50.47935" lon="3.07451">
        <ele>49</ele>
        <time>2020-10-22T18:02:43Z</time>
      </trkpt>
      <trkpt lat="50.47914" lon="3.07301">
        <ele>49</ele>
        <time>2020-10-22T18:03:06Z</time>
      </trkpt>
      <trkpt lat="50.47904" lon="3.07202">
        <ele>50</ele>
        <time>2020-10-22T18:03:21Z</time>
      </trkpt>
      <trkpt lat="50.47898" lon="3.07013">
        <ele>53</ele>
        <time>2020-10-22T18:03:49Z</time>
      </trkpt>
      <trkpt lat="50.4789" lon="3.06944">
        <ele>56</ele>
        <time>2020-10-22T18:03:59Z</time>
      </trkpt>
      <trkpt lat="50.47886" lon="3.06831">
        <ele>60</ele>
        <time>2020-10-22T18:04:16Z</time>
      </trkpt>
      <trkpt lat="50.47868" lon="3.06734">
        <ele>61</ele>
        <time>2020-10-22T18:04:31Z</time>
      </trkpt>
      <trkpt lat="50.47837" lon="3.06696">
        <ele>60</ele>
        <time>2020-10-22T18:04:40Z</time>
      </trkpt>
      <trkpt lat="50.47809" lon="3.06682">
        <ele>62</ele>
        <time>2020-10-22T18:04:47Z</time>
      </trkpt>
      <trkpt lat="50.47791" lon="3.06647">
        <ele>63</ele>
        <time>2020-10-22T18:04:54Z</time>
      </trkpt>
      <trkpt lat="50.47772" lon="3.06664">
        <ele>67</ele>
        <time>2020-10-22T18:04:59Z</time>
      </trkpt>
      <trkpt lat="50.47756" lon="3.06684">
        <ele>69</ele>
        <time>2020-10-22T18:05:04Z</time>
      </trkpt>
      <trkpt lat="50.47737" lon="3.06684">
        <ele>70</ele>
        <time>2020-10-22T18:05:08Z</time>
      </trkpt>
      <trkpt lat="50.47725" lon="3.06693">
        <ele>69</ele>
        <time>2020-10-22T18:05:11Z</time>
      </trkpt>
      <trkpt lat="50.47668" lon="3.06765">
        <ele>69</ele>
        <time>2020-10-22T18:05:28Z</time>
      </trkpt>
      <trkpt lat="50.47653" lon="3.06778">
        <ele>69</ele>
        <time>2020-10-22T18:05:32Z</time>
      </trkpt>
      <trkpt lat="50.47639" lon="3.06773">
        <ele>69</ele>
        <time>2020-10-22T18:05:36Z</time>
      </trkpt>
      <trkpt lat="50.47625" lon="3.06788">
        <ele>69</ele>
        <time>2020-10-22T18:05:40Z</time>
      </trkpt>
      <trkpt lat="50.47608" lon="3.06797">
        <ele>68</ele>
        <time>2020-10-22T18:05:44Z</time>
      </trkpt>
      <trkpt lat="50.47591" lon="3.06811">
        <ele>68</ele>
        <time>2020-10-22T18:05:48Z</time>
      </trkpt>
      <trkpt lat="50.47575" lon="3.06831">
        <ele>67</ele>
        <time>2020-10-22T18:05:53Z</time>
      </trkpt>
      <trkpt lat="50.47562" lon="3.06826">
        <ele>66</ele>
        <time>2020-10-22T18:05:56Z</time>
      </trkpt>
      <trkpt lat="50.47548" lon="3.06826">
        <ele>65</ele>
        <time>2020-10-22T18:06:00Z</time>
      </trkpt>
      <trkpt lat="50.47536" lon="3.06805">
        <ele>64</ele>
        <time>2020-10-22T18:06:04Z</time>
      </trkpt>
      <trkpt lat="50.47525" lon="3.06773">
        <ele>64</ele>
        <time>2020-10-22T18:06:09Z</time>
      </trkpt>
      <trkpt lat="50.47531" lon="3.0674">
        <ele>64</ele>
        <time>2020-10-22T18:06:14Z</time>
      </trkpt>
      <trkpt lat="50.47569" lon="3.0668">
        <ele>65</ele>
        <time>2020-10-22T18:06:27Z</time>
      </trkpt>
      <trkpt lat="50.47591" lon="3.06617">
        <ele>65</ele>
        <time>2020-10-22T18:06:37Z</time>
      </trkpt>
      <trkpt lat="50.47605" lon="3.066">
        <ele>65</ele>
        <time>2020-10-22T18:06:42Z</time>
      </trkpt>
      <trkpt lat="50.47636" lon="3.06577">
        <ele>65</ele>
        <time>2020-10-22T18:06:50Z</time>
      </trkpt>
      <trkpt lat="50.4767" lon="3.06567">
        <ele>65</ele>
        <time>2020-10-22T18:06:58Z</time>
      </trkpt>
      <trkpt lat="50.47691" lon="3.06564">
        <ele>64</ele>
        <time>2020-10-22T18:07:03Z</time>
      </trkpt>
      <trkpt lat="50.47726" lon="3.06579">
        <ele>64</ele>
        <time>2020-10-22T18:07:11Z</time>
      </trkpt>
      <trkpt lat="50.47734" lon="3.06594">
        <ele>65</ele>
        <time>2020-10-22T18:07:14Z</time>
      </trkpt>
      <trkpt lat="50.47758" lon="3.06579">
        <ele>63</ele>
        <time>2020-10-22T18:07:20Z</time>
      </trkpt>
      <trkpt lat="50.47765" lon="3.06559">
        <ele>60</ele>
        <time>2020-10-22T18:07:23Z</time>
      </trkpt>
      <trkpt lat="50.4775" lon="3.0652">
        <ele>58</ele>
        <time>2020-10-22T18:07:30Z</time>
      </trkpt>
      <trkpt lat="50.47761" lon="3.06488">
        <ele>55</ele>
        <time>2020-10-22T18:07:36Z</time>
      </trkpt>
      <trkpt lat="50.47762" lon="3.06462">
        <ele>54</ele>
        <time>2020-10-22T18:07:39Z</time>
      </trkpt>
      <trkpt lat="50.47749" lon="3.06412">
        <ele>52</ele>
        <time>2020-10-22T18:07:47Z</time>
      </trkpt>
      <trkpt lat="50.47699" lon="3.06319">
        <ele>53</ele>
        <time>2020-10-22T18:08:06Z</time>
      </trkpt>
      <trkpt lat="50.47653" lon="3.06105">
        <ele>56</ele>
        <time>2020-10-22T18:08:39Z</time>
      </trkpt>
      <trkpt lat="50.47639" lon="3.05998">
        <ele>58</ele>
        <time>2020-10-22T18:08:55Z</time>
      </trkpt>
      <trkpt lat="50.47575" lon="3.06084">
        <ele>61</ele>
        <time>2020-10-22T18:09:15Z</time>
      </trkpt>
      <trkpt lat="50.47517" lon="3.06154">
        <ele>60</ele>
        <time>2020-10-22T18:09:32Z</time>
      </trkpt>
      <trkpt lat="50.47471" lon="3.06227">
        <ele>61</ele>
        <time>2020-10-22T18:09:47Z</time>
      </trkpt>
      <trkpt lat="50.47432" lon="3.06272">
        <ele>61</ele>
        <time>2020-10-22T18:09:59Z</time>
      </trkpt>
      <trkpt lat="50.47289" lon="3.06479">
        <ele>61</ele>
        <time>2020-10-22T18:10:44Z</time>
      </trkpt>
      <trkpt lat="50.4723" lon="3.06577">
        <ele>62</ele>
        <time>2020-10-22T18:11:04Z</time>
      </trkpt>
      <trkpt lat="50.47091" lon="3.06779">
        <ele>64</ele>
        <time>2020-10-22T18:11:48Z</time>
      </trkpt>
      <trkpt lat="50.47097" lon="3.06808">
        <ele>64</ele>
        <time>2020-10-22T18:11:53Z</time>
      </trkpt>
      <trkpt lat="50.46975" lon="3.06998">
        <ele>66</ele>
        <time>2020-10-22T18:12:33Z</time>
      </trkpt>
      <trkpt lat="50.46905" lon="3.07046">
        <ele>66</ele>
        <time>2020-10-22T18:12:51Z</time>
      </trkpt>
      <trkpt lat="50.46819" lon="3.07208">
        <ele>65</ele>
        <time>2020-10-22T18:13:22Z</time>
      </trkpt>
      <trkpt lat="50.46807" lon="3.0721">
        <ele>65</ele>
        <time>2020-10-22T18:13:25Z</time>
      </trkpt>
      <trkpt lat="50.46699" lon="3.07016">
        <ele>66</ele>
        <time>2020-10-22T18:14:03Z</time>
      </trkpt>
      <trkpt lat="50.46693" lon="3.06993">
        <ele>66</ele>
        <time>2020-10-22T18:14:07Z</time>
      </trkpt>
      <trkpt lat="50.46659" lon="3.06943">
        <ele>68</ele>
        <time>2020-10-22T18:14:18Z</time>
      </trkpt>
      <trkpt lat="50.46637" lon="3.06896">
        <ele>69</ele>
        <time>2020-10-22T18:14:27Z</time>
      </trkpt>
      <trkpt lat="50.46631" lon="3.06846">
        <ele>70</ele>
        <time>2020-10-22T18:14:34Z</time>
      </trkpt>
      <trkpt lat="50.46613" lon="3.06808">
        <ele>72</ele>
        <time>2020-10-22T18:14:41Z</time>
      </trkpt>
      <trkpt lat="50.46599" lon="3.06764">
        <ele>74</ele>
        <time>2020-10-22T18:14:49Z</time>
      </trkpt>
      <trkpt lat="50.46568" lon="3.06778">
        <ele>74</ele>
        <time>2020-10-22T18:14:56Z</time>
      </trkpt>
      <trkpt lat="50.46543" lon="3.06772">
        <ele>73</ele>
        <time>2020-10-22T18:15:02Z</time>
      </trkpt>
      <trkpt lat="50.46527" lon="3.06797">
        <ele>72</ele>
        <time>2020-10-22T18:15:07Z</time>
      </trkpt>
      <trkpt lat="50.46518" lon="3.06796">
        <ele>72</ele>
        <time>2020-10-22T18:15:09Z</time>
      </trkpt>
      <trkpt lat="50.46502" lon="3.06772">
        <ele>71</ele>
        <time>2020-10-22T18:15:14Z</time>
      </trkpt>
      <trkpt lat="50.46487" lon="3.06765">
        <ele>71</ele>
        <time>2020-10-22T18:15:18Z</time>
      </trkpt>
      <trkpt lat="50.46456" lon="3.06724">
        <ele>70</ele>
        <time>2020-10-22T18:15:28Z</time>
      </trkpt>
      <trkpt lat="50.46432" lon="3.06679">
        <ele>70</ele>
        <time>2020-10-22T18:15:36Z</time>
      </trkpt>
      <trkpt lat="50.46395" lon="3.06624">
        <ele>67</ele>
        <time>2020-10-22T18:15:48Z</time>
      </trkpt>
      <trkpt lat="50.46282" lon="3.06409">
        <ele>71</ele>
        <time>2020-10-22T18:16:30Z</time>
      </trkpt>
      <trkpt lat="50.4626" lon="3.0636">
        <ele>72</ele>
        <time>2020-10-22T18:16:39Z</time>
      </trkpt>
      <trkpt lat="50.46239" lon="3.06342">
        <ele>72</ele>
        <time>2020-10-22T18:16:44Z</time>
      </trkpt>
      <trkpt lat="50.4617" lon="3.06424">
        <ele>67</ele>
        <time>2020-10-22T18:17:04Z</time>
      </trkpt>
      <trkpt lat="50.46145" lon="3.06447">
        <ele>66</ele>
        <time>2020-10-22T18:17:11Z</time>
      </trkpt>
      <trkpt lat="50.46105" lon="3.06457">
        <ele>68</ele>
        <time>2020-10-22T18:17:21Z</time>
      </trkpt>
      <trkpt lat="50.46012" lon="3.06603">
        <ele>67</ele>
        <time>2020-10-22T18:17:51Z</time>
      </trkpt>
      <trkpt lat="50.45992" lon="3.06624">
        <ele>67</ele>
        <time>2020-10-22T18:17:57Z</time>
      </trkpt>
      <trkpt lat="50.45973" lon="3.06626">
        <ele>67</ele>
        <time>2020-10-22T18:18:01Z</time>
      </trkpt>
      <trkpt lat="50.4596" lon="3.06643">
        <ele>67</ele>
        <time>2020-10-22T18:18:05Z</time>
      </trkpt>
      <trkpt lat="50.4596" lon="3.06658">
        <ele>67</ele>
        <time>2020-10-22T18:18:08Z</time>
      </trkpt>
      <trkpt lat="50.45937" lon="3.06668">
        <ele>68</ele>
        <time>2020-10-22T18:18:13Z</time>
      </trkpt>
      <trkpt lat="50.45911" lon="3.06668">
        <ele>69</ele>
        <time>2020-10-22T18:18:19Z</time>
      </trkpt>
      <trkpt lat="50.45873" lon="3.06653">
        <ele>68</ele>
        <time>2020-10-22T18:18:28Z</time>
      </trkpt>
      <trkpt lat="50.45862" lon="3.06694">
        <ele>66</ele>
        <time>2020-10-22T18:18:35Z</time>
      </trkpt>
      <trkpt lat="50.45871" lon="3.0675">
        <ele>65</ele>
        <time>2020-10-22T18:18:44Z</time>
      </trkpt>
      <trkpt lat="50.45867" lon="3.06787">
        <ele>65</ele>
        <time>2020-10-22T18:18:49Z</time>
      </trkpt>
      <trkpt lat="50.45825" lon="3.06847">
        <ele>63</ele>
        <time>2020-10-22T18:19:02Z</time>
      </trkpt>
      <trkpt lat="50.45799" lon="3.06876">
        <ele>63</ele>
        <time>2020-10-22T18:19:10Z</time>
      </trkpt>
      <trkpt lat="50.45749" lon="3.06922">
        <ele>63</ele>
        <time>2020-10-22T18:19:23Z</time>
      </trkpt>
      <trkpt lat="50.45619" lon="3.06944">
        <ele>63</ele>
        <time>2020-10-22T18:19:54Z</time>
      </trkpt>
      <trkpt lat="50.45586" lon="3.06928">
        <ele>63</ele>
        <time>2020-10-22T18:20:02Z</time>
      </trkpt>
      <trkpt lat="50.4556" lon="3.069">
        <ele>64</ele>
        <time>2020-10-22T18:20:09Z</time>
      </trkpt>
      <trkpt lat="50.45533" lon="3.06887">
        <ele>66</ele>
        <time>2020-10-22T18:20:16Z</time>
      </trkpt>
      <trkpt lat="50.45508" lon="3.06879">
        <ele>67</ele>
        <time>2020-10-22T18:20:22Z</time>
      </trkpt>
      <trkpt lat="50.45494" lon="3.06866">
        <ele>68</ele>
        <time>2020-10-22T18:20:26Z</time>
      </trkpt>
      <trkpt lat="50.45498" lon="3.06841">
        <ele>69</ele>
        <time>2020-10-22T18:20:30Z</time>
      </trkpt>
      <trkpt lat="50.45554" lon="3.06788">
        <ele>63</ele>
        <time>2020-10-22T18:20:45Z</time>
      </trkpt>
      <trkpt lat="50.45635" lon="3.06721">
        <ele>60</ele>
        <time>2020-10-22T18:21:06Z</time>
      </trkpt>
      <trkpt lat="50.4564" lon="3.06703">
        <ele>59</ele>
        <time>2020-10-22T18:21:09Z</time>
      </trkpt>
      <trkpt lat="50.45633" lon="3.06667">
        <ele>59</ele>
        <time>2020-10-22T18:21:15Z</time>
      </trkpt>
      <trkpt lat="50.45196" lon="3.05536">
        <ele>42</ele>
        <time>2020-10-22T18:24:31Z</time>
      </trkpt>
      <trkpt lat="50.45298" lon="3.05439">
        <ele>45</ele>
        <time>2020-10-22T18:24:59Z</time>
      </trkpt>
      <trkpt lat="50.45366" lon="3.0537">
        <ele>44</ele>
        <time>2020-10-22T18:25:18Z</time>
      </trkpt>
      <trkpt lat="50.45449" lon="3.05165">
        <ele>47</ele>
        <time>2020-10-22T18:25:54Z</time>
      </trkpt>
      <trkpt lat="50.45494" lon="3.05028">
        <ele>50</ele>
        <time>2020-10-22T18:26:17Z</time>
      </trkpt>
      <trkpt lat="50.45546" lon="3.04882">
        <ele>49</ele>
        <time>2020-10-22T18:26:42Z</time>
      </trkpt>
      <trkpt lat="50.45624" lon="3.04643">
        <ele>50</ele>
        <time>2020-10-22T18:27:22Z</time>
      </trkpt>
      <trkpt lat="50.45644" lon="3.04602">
        <ele>47</ele>
        <time>2020-10-22T18:27:30Z</time>
      </trkpt>
      <trkpt lat="50.45631" lon="3.04468">
        <ele>43</ele>
        <time>2020-10-22T18:27:50Z</time>
      </trkpt>
      <trkpt lat="50.4564" lon="3.04377">
        <ele>43</ele>
        <time>2020-10-22T18:28:04Z</time>
      </trkpt>
      <trkpt lat="50.45655" lon="3.04303">
        <ele>43</ele>
        <time>2020-10-22T18:28:15Z</time>
      </trkpt>
      <trkpt lat="50.45674" lon="3.04247">
        <ele>44</ele>
        <time>2020-10-22T18:28:24Z</time>
      </trkpt>
      <trkpt lat="50.45687" lon="3.042">
        <ele>43</ele>
        <time>2020-10-22T18:28:32Z</time>
      </trkpt>
      <trkpt lat="50.45705" lon="3.0416">
        <ele>41</ele>
        <time>2020-10-22T18:28:39Z</time>
      </trkpt>
      <trkpt lat="50.45701" lon="3.04122">
        <ele>39</ele>
        <time>2020-10-22T18:28:45Z</time>
      </trkpt>
      <trkpt lat="50.45706" lon="3.041">
        <ele>39</ele>
        <time>2020-10-22T18:28:49Z</time>
      </trkpt>
      <trkpt lat="50.45732" lon="3.04053">
        <ele>38</ele>
        <time>2020-10-22T18:28:58Z</time>
      </trkpt>
      <trkpt lat="50.45744" lon="3.04019">
        <ele>39</ele>
        <time>2020-10-22T18:29:04Z</time>
      </trkpt>
      <trkpt lat="50.45739" lon="3.03984">
        <ele>39</ele>
        <time>2020-10-22T18:29:09Z</time>
      </trkpt>
      <trkpt lat="50.45714" lon="3.03958">
        <ele>39</ele>
        <time>2020-10-22T18:29:16Z</time>
      </trkpt>
      <trkpt lat="50.45692" lon="3.03919">
        <ele>39</ele>
        <time>2020-10-22T18:29:24Z</time>
      </trkpt>
      <trkpt lat="50.45682" lon="3.03819">
        <ele>40</ele>
        <time>2020-10-22T18:29:39Z</time>
      </trkpt>
      <trkpt lat="50.45676" lon="3.03707">
        <ele>37</ele>
        <time>2020-10-22T18:29:55Z</time>
      </trkpt>
      <trkpt lat="50.45668" lon="3.0367">
        <ele>34</ele>
        <time>2020-10-22T18:30:01Z</time>
      </trkpt>
      <trkpt lat="50.45708" lon="3.03596">
        <ele>35</ele>
        <time>2020-10-22T18:30:16Z</time>
      </trkpt>
      <trkpt lat="50.45746" lon="3.03591">
        <ele>37</ele>
        <time>2020-10-22T18:30:25Z</time>
      </trkpt>
      <trkpt lat="50.45796" lon="3.03531">
        <ele>35</ele>
        <time>2020-10-22T18:30:39Z</time>
      </trkpt>
      <trkpt lat="50.45823" lon="3.03558">
        <ele>40</ele>
        <time>2020-10-22T18:30:47Z</time>
      </trkpt>
      <trkpt lat="50.45869" lon="3.03537">
        <ele>36</ele>
        <time>2020-10-22T18:30:58Z</time>
      </trkpt>
      <trkpt lat="50.45937" lon="3.03617">
        <ele>36</ele>
        <time>2020-10-22T18:31:18Z</time>
      </trkpt>
      <trkpt lat="50.45945" lon="3.03713">
        <ele>44</ele>
        <time>2020-10-22T18:31:32Z</time>
      </trkpt>
      <trkpt lat="50.45993" lon="3.03763">
        <ele>35</ele>
        <time>2020-10-22T18:31:46Z</time>
      </trkpt>
      <trkpt lat="50.46019" lon="3.03745">
        <ele>32</ele>
        <time>2020-10-22T18:31:52Z</time>
      </trkpt>
      <trkpt lat="50.4605" lon="3.03742">
        <ele>31.1</ele>
      </trkpt>
      <trkpt lat="50.46069" lon="3.0371">
        <ele>30.9</ele>
      </trkpt>
      <trkpt lat="50.46072" lon="3.0367">
        <ele>30.4</ele>
      </trkpt>
      <trkpt lat="50.4608" lon="3.03628">
        <ele>30</ele>
      </trkpt>
    </trkseg>
  </trk>
</gpx>